• Join FlightAware (Why Join?)
  • Login
  • US Flag 
Rudolph Flight #1: Scheduled 
10:53PM EST


 

Airport Tracker/Info


-or-


 

Live Flight TrackerFlight Track Log ✈ KLM641 ✈ 05-May-2012 ✈ EHAM / AMS - KJFK

Flight Track Log - Related Links

Times and Time Zones

All times are in EDT time to prevent confusion due to time zone crossing. See the KLM641 flight status page for this flight to view local times or setup timezone preferences in your user account.

Time Position Orientation Groundspeed Altitude Reporting Facility
EDT Latitude Longitude Course Direction KTS MPH feet Rate Location/Type
07:35AM 52.3528 4.4958 293° West  Level FlightAware Approximate
07:36AM 52.3907 4.3252 293° West  Level FlightAware Approximate
07:37AM 52.4261 4.1530 293° West  Level FlightAware Approximate
07:38AM 52.4699 3.9708 293° West  Level FlightAware Approximate
07:39AM 52.5151 3.7894 293° West  Level FlightAware Approximate
07:40AM 52.5547 3.6042 294° West  Level FlightAware Approximate
07:41AM 52.5933 3.4183 294° West  Level FlightAware Approximate
07:42AM 52.6316 3.2321 294° West  Level FlightAware Approximate
07:43AM 52.6697 3.0456 295° West  Level FlightAware Approximate
07:44AM 52.7075 2.8587 296° West  Level FlightAware Approximate
07:45AM 52.7449 2.6715 297° West  Level FlightAware Approximate
07:46AM 52.7821 2.4840 298° West  Level FlightAware Approximate
07:47AM 52.8190 2.2962 300° West  Level FlightAware Approximate
07:48AM 52.8555 2.1081 304° West  Level FlightAware Approximate
07:49AM 52.8918 1.9196 311° West  Level FlightAware Approximate
07:50AM 52.9278 1.7309 327° Northwest  Level FlightAware Approximate
07:51AM 52.9635 1.5418 11° North  Level FlightAware Approximate
07:52AM 52.9989 1.3524 62° Northeast  Level FlightAware Approximate
07:53AM 53.0339 1.1627 81° East  Level FlightAware Approximate
07:54AM 53.0687 0.9727 89° East  Level FlightAware Approximate
07:55AM 53.1032 0.7824 94° East  Level FlightAware Approximate
07:56AM 53.1373 0.5918 96° East  Level FlightAware Approximate
07:57AM 53.1712 0.4008 98° East  Level FlightAware Approximate
07:58AM 53.2048 0.2096 99° East  Level FlightAware Approximate
07:59AM 53.2380 0.0181 100° East  Level FlightAware Approximate
08:00AM 53.2710 -0.1737 100° East  Level FlightAware Approximate
08:01AM 53.3036 -0.3658 101° East  Level FlightAware Approximate
08:02AM 53.3359 -0.5582 101° East  Level FlightAware Approximate
08:03AM 53.3747 -0.7437 101° East  Level FlightAware Approximate
08:04AM 53.4065 -0.9367 102° East  Level FlightAware Approximate
08:05AM 53.4380 -1.1299 102° East  Level FlightAware Approximate
08:06AM 53.4692 -1.3234 102° East  Level FlightAware Approximate
08:07AM 53.5001 -1.5172 102° East  Level FlightAware Approximate
08:08AM 53.5192 -1.7153 102° East  Level FlightAware Approximate
08:09AM 53.5496 -1.9095 102° East  Level FlightAware Approximate
08:11AM 53.0709 1.5754 279° West 477 549 33,400  Level FlightAware ADS-B
08:12AM 53.0831 1.4415 279° West 481 554 33,900 480 Climbing FlightAware ADS-B
08:12AM 53.0935 1.3271 278° West 479 551 34,000 60 Climbing FlightAware ADS-B
08:13AM 53.1033 1.2174 278° West 479 551 34,000  Level FlightAware ADS-B
08:13AM 53.1138 1.0968 278° West 479 551 34,000  Level FlightAware ADS-B
08:14AM 53.1235 0.9872 278° West 478 550 34,000  Level FlightAware ADS-B
08:14AM 53.1331 0.8777 278° West 478 550 34,000  Level FlightAware ADS-B
08:15AM 53.1432 0.7625 278° West 477 549 34,000  Level FlightAware ADS-B
08:15AM 53.1533 0.6475 278° West 475 547 34,000  Level FlightAware ADS-B
08:16AM 53.1636 0.5315 279° West 474 545 34,000  Level FlightAware ADS-B
08:16AM 53.1736 0.4199 279° West 473 544 34,000  Level FlightAware ADS-B
08:17AM 53.1835 0.3106 279° West 473 544 34,000  Level FlightAware ADS-B
08:17AM 53.1939 0.1956 279° West 473 544 34,000  Level FlightAware ADS-B
08:18AM 53.2037 0.0865 278° West 472 543 34,000  Level FlightAware ADS-B
08:18AM 53.2141 -0.0304 278° West 471 542 34,000  Level FlightAware ADS-B
08:19AM 53.2241 -0.1449 278° West 470 541 34,000  Level FlightAware ADS-B
08:19AM 53.2338 -0.2571 278° West 469 540 34,000  Level FlightAware ADS-B
08:20AM 53.2430 -0.3661 278° West 467 537 34,000  Level FlightAware ADS-B
08:20AM 53.2522 -0.4740 278° West 467 537 34,000  Level FlightAware ADS-B
08:21AM 53.2688 -0.6679 278° West 466 536 34,000  Level FlightAware ADS-B
08:22AM 53.2833 -0.8336 278° West 465 535 34,000  Level FlightAware ADS-B
08:23AM 53.2936 -0.9524 278° West 464 534 34,000  Level FlightAware ADS-B
08:23AM 53.3029 -1.0583 278° West 464 534 34,000  Level FlightAware ADS-B
08:24AM 53.3138 -1.1827 279° West 464 534 34,000  Level FlightAware ADS-B
08:24AM 53.3253 -1.3104 278° West 465 535 34,000  Level FlightAware ADS-B
08:26AM 53.3486 -1.5811 278° West 464 534 34,000  Level FlightAware ADS-B
08:26AM 53.3575 -1.6873 278° West 464 534 34,000  Level FlightAware ADS-B
08:27AM 53.3669 -1.8072 278° West 463 533 34,000  Level FlightAware ADS-B
08:27AM 53.3766 -1.9306 278° West 464 534 34,000  Level FlightAware ADS-B
08:28AM 53.3851 -2.0388 277° West 466 536 34,000  Level FlightAware ADS-B
08:28AM 53.3936 -2.1488 277° West 467 537 34,000  Level FlightAware ADS-B
08:30AM 53.4159 -2.4560 277° West 461 531 34,000  Level FlightAware ADS-B
08:30AM 53.4237 -2.5627 277° West 460 529 34,000  Level FlightAware ADS-B
08:31AM 53.4314 -2.6701 277° West 460 529 34,000  Level FlightAware ADS-B
08:31AM 53.4399 -2.7891 277° West 459 528 34,000  Level FlightAware ADS-B
08:32AM 53.4487 -2.9098 277° West 461 531 34,000  Level FlightAware ADS-B
08:33AM 53.4668 -3.1757 280° West 459 528 34,000  Level FlightAware ADS-B
08:41AM 53.9259 -4.5407 277° West  Level FlightAware Approximate
08:42AM 53.9511 -4.7418 276° West  Level FlightAware Approximate
08:43AM 53.9770 -4.9428 276° West  Level FlightAware Approximate
08:44AM 54.0025 -5.1440 276° West  Level FlightAware Approximate
08:45AM 54.0277 -5.3455 276° West  Level FlightAware Approximate
08:46AM 54.0526 -5.5472 276° West  Level FlightAware Approximate
08:47AM 54.0771 -5.7492 275° West  Level FlightAware Approximate
08:48AM 54.1002 -5.9517 275° West  Level FlightAware Approximate
08:49AM 54.1241 -6.1542 275° West  Level FlightAware Approximate
08:50AM 54.1476 -6.3568 274° West  Level FlightAware Approximate
08:51AM 54.1708 -6.5597 274° West  Level FlightAware Approximate
08:52AM 54.1937 -6.7628 274° West  Level FlightAware Approximate
08:53AM 54.2162 -6.9661 274° West  Level FlightAware Approximate
08:54AM 54.2383 -7.1697 273° West  Level FlightAware Approximate
08:55AM 54.2688 -7.3701 273° West  Level FlightAware Approximate
08:56AM 54.2900 -7.5742 273° West  Level FlightAware Approximate
08:57AM 54.3110 -7.7785 272° West  Level FlightAware Approximate
08:58AM 54.3316 -7.9830 272° West  Level FlightAware Approximate
08:59AM 54.3518 -8.1877 272° West  Level FlightAware Approximate
09:00AM 54.3717 -8.3926 272° West  Level FlightAware Approximate
09:01AM 54.3913 -8.5977 271° West  Level FlightAware Approximate
09:02AM 54.4105 -8.8030 271° West  Level FlightAware Approximate
09:03AM 54.4293 -9.0084 271° West  Level FlightAware Approximate
09:04AM 54.4478 -9.2141 270° West  Level FlightAware Approximate
09:05AM 54.4660 -9.4200 270° West  Level FlightAware Approximate
09:06AM 54.4838 -9.6260 270° West  Level FlightAware Approximate
09:07AM 54.5013 -9.8322 269° West  Level FlightAware Approximate
09:08AM 54.5184 -10.0386 269° West  Level FlightAware Approximate
09:09AM 54.5351 -10.2451 269° West  Level FlightAware Approximate
09:10AM 54.5481 -10.4518 268° West  Level FlightAware Approximate
09:11AM 54.5642 -10.6587 268° West  Level FlightAware Approximate
09:12AM 54.5800 -10.8657 268° West  Level FlightAware Approximate
09:13AM 54.5954 -11.0728 267° West  Level FlightAware Approximate
09:14AM 54.6105 -11.2802 267° West  Level FlightAware Approximate
09:15AM 54.6252 -11.4876 266° West  Level FlightAware Approximate
09:16AM 54.6395 -11.6953 266° West  Level FlightAware Approximate
09:17AM 54.6535 -11.9031 265° West  Level FlightAware Approximate
09:18AM 54.6672 -12.1110 265° West  Level FlightAware Approximate
09:19AM 54.6805 -12.3190 264° West  Level FlightAware Approximate
09:20AM 54.6934 -12.5272 264° West  Level FlightAware Approximate
09:21AM 54.7060 -12.7355 263° West  Level FlightAware Approximate
09:22AM 54.7182 -12.9440 263° West  Level FlightAware Approximate
09:23AM 54.7300 -13.1525 262° West  Level FlightAware Approximate
09:24AM 54.7415 -13.3612 262° West  Level FlightAware Approximate
09:25AM 54.7527 -13.5701 261° West  Level FlightAware Approximate
09:26AM 54.7634 -13.7790 261° West  Level FlightAware Approximate
09:27AM 54.7738 -13.9880 260° West  Level FlightAware Approximate
09:28AM 54.7839 -14.1971 259° West  Level FlightAware Approximate
09:29AM 54.7936 -14.4064 259° West  Level FlightAware Approximate
09:30AM 54.8030 -14.6157 258° West  Level FlightAware Approximate
09:31AM 54.8119 -14.8251 257° West  Level FlightAware Approximate
09:32AM 54.8205 -15.0346 256° West  Level FlightAware Approximate
09:33AM 54.8288 -15.2443 255° West  Level FlightAware Approximate
09:34AM 54.8367 -15.4539 254° West  Level FlightAware Approximate
09:35AM 54.8442 -15.6637 253° West  Level FlightAware Approximate
09:36AM 54.8514 -15.8736 252° West  Level FlightAware Approximate
09:37AM 54.8582 -16.0835 251° West  Level FlightAware Approximate
09:38AM 54.8647 -16.2935 250° West  Level FlightAware Approximate
09:39AM 54.8720 -16.5033 248° West  Level FlightAware Approximate
09:40AM 54.8777 -16.7134 247° West  Level FlightAware Approximate
09:41AM 54.8831 -16.9236 245° Southwest  Level FlightAware Approximate
09:42AM 54.8880 -17.1339 243° Southwest  Level FlightAware Approximate
09:43AM 54.8927 -17.3442 241° Southwest  Level FlightAware Approximate
09:44AM 54.8969 -17.5545 239° Southwest  Level FlightAware Approximate
09:45AM 54.9008 -17.7649 236° Southwest  Level FlightAware Approximate
09:46AM 54.9043 -17.9753 233° Southwest  Level FlightAware Approximate
09:47AM 54.9075 -18.1857 230° Southwest  Level FlightAware Approximate
09:48AM 54.9103 -18.3962 226° Southwest  Level FlightAware Approximate
09:49AM 54.9127 -18.6067 222° Southwest  Level FlightAware Approximate
09:50AM 54.9147 -18.8172 217° Southwest  Level FlightAware Approximate
09:51AM 54.9165 -19.0278 212° Southwest  Level FlightAware Approximate
09:52AM 54.0000 -20.0000 274° West 469 540 37,000  Level ETMS Enhanced Traffic Management System
09:52AM 54.9178 -19.2384 240° Southwest  Level FlightAware Approximate
09:53AM 54.9188 -19.4489 237° Southwest  Level FlightAware Approximate
09:54AM 54.9194 -19.6595 234° Southwest  Level FlightAware Approximate
09:55AM 54.9196 -19.8701 231° Southwest  Level FlightAware Approximate
09:56AM 54.9195 -20.0807 228° Southwest  Level FlightAware Approximate
09:59AM 54.0578 -21.6710 273° West 469 540 37,000  Level FlightAware Transoceanic
10:00AM 54.0638 -21.8931 273° West 469 540 37,000  Level FlightAware Transoceanic
10:01AM 54.0693 -22.1153 272° West 469 540 37,000  Level FlightAware Transoceanic
10:02AM 54.0744 -22.3376 272° West 469 540 37,000  Level FlightAware Transoceanic
10:03AM 54.0791 -22.5599 272° West 469 540 37,000  Level FlightAware Transoceanic
10:04AM 54.0834 -22.7822 272° West 469 540 37,000  Level FlightAware Transoceanic
10:05AM 54.0873 -23.0046 272° West 469 540 37,000  Level FlightAware Transoceanic
10:06AM 54.0908 -23.2271 271° West 469 540 37,000  Level FlightAware Transoceanic
10:07AM 54.0938 -23.4495 271° West 469 540 37,000  Level FlightAware Transoceanic
10:08AM 54.0965 -23.6720 271° West 469 540 37,000  Level FlightAware Transoceanic
10:09AM 54.0988 -23.8946 271° West 469 540 37,000  Level FlightAware Transoceanic
10:10AM 54.1006 -24.1171 271° West 469 540 37,000  Level FlightAware Transoceanic
10:11AM 54.1020 -24.3397 271° West 469 540 37,000  Level FlightAware Transoceanic
10:12AM 54.1030 -24.5622 270° West 469 540 37,000  Level FlightAware Transoceanic
10:13AM 54.1036 -24.7848 270° West 469 540 37,000  Level FlightAware Transoceanic
10:14AM 54.1038 -25.0074 270° West 469 540 37,000  Level FlightAware Transoceanic
10:15AM 54.1036 -25.2300 270° West 469 540 37,000  Level FlightAware Transoceanic
10:16AM 54.1030 -25.4526 270° West 469 540 37,000  Level FlightAware Transoceanic
10:17AM 54.1019 -25.6752 269° West 469 540 37,000  Level FlightAware Transoceanic
10:18AM 54.1005 -25.8977 269° West 469 540 37,000  Level FlightAware Transoceanic
10:19AM 54.0986 -26.1203 269° West 469 540 37,000  Level FlightAware Transoceanic
10:20AM 54.0963 -26.3428 269° West 469 540 37,000  Level FlightAware Transoceanic
10:21AM 54.0937 -26.5653 269° West 469 540 37,000  Level FlightAware Transoceanic
10:22AM 54.0906 -26.7878 269° West 469 540 37,000  Level FlightAware Transoceanic
10:23AM 54.0871 -27.0102 268° West 469 540 37,000  Level FlightAware Transoceanic
10:24AM 54.0831 -27.2326 268° West 469 540 37,000  Level FlightAware Transoceanic
10:25AM 54.0788 -27.4550 268° West 469 540 37,000  Level FlightAware Transoceanic
10:26AM 54.0741 -27.6773 268° West 469 540 37,000  Level FlightAware Transoceanic
10:27AM 54.0690 -27.8995 268° West 469 540 37,000  Level FlightAware Transoceanic
10:28AM 54.0634 -28.1217 267° West 469 540 37,000  Level FlightAware Transoceanic
10:29AM 54.0574 -28.3438 267° West 469 540 37,000  Level FlightAware Transoceanic
10:30AM 54.0511 -28.5659 267° West 469 540 37,000  Level FlightAware Transoceanic
10:31AM 54.0443 -28.7879 267° West 469 540 37,000  Level FlightAware Transoceanic
10:32AM 54.0371 -29.0098 267° West 469 540 37,000  Level FlightAware Transoceanic
10:33AM 54.0295 -29.2316 267° West 469 540 37,000  Level FlightAware Transoceanic
10:34AM 54.0215 -29.4534 266° West 469 540 37,000  Level FlightAware Transoceanic
10:35AM 54.0131 -29.6751 266° West 469 540 37,000  Level FlightAware Transoceanic
10:36AM 54.0043 -29.8966 269° West 469 540 37,000  Level FlightAware Transoceanic
10:37AM 53.9916 -30.1014 269° West  Level FlightAware Approximate
10:38AM 53.9785 -30.3060 268° West  Level FlightAware Approximate
10:39AM 53.9652 -30.5105 268° West  Level FlightAware Approximate
10:40AM 53.9515 -30.7149 268° West  Level FlightAware Approximate
10:41AM 53.9374 -30.9192 268° West  Level FlightAware Approximate
10:42AM 53.9230 -31.1233 268° West  Level FlightAware Approximate
10:43AM 53.9066 -31.3269 268° West  Level FlightAware Approximate
10:44AM 53.8900 -31.5304 268° West  Level FlightAware Approximate
10:45AM 53.8730 -31.7337 268° West  Level FlightAware Approximate
10:46AM 53.8556 -31.9368 268° West  Level FlightAware Approximate
10:47AM 53.8379 -32.1397 267° West  Level FlightAware Approximate
10:48AM 53.8199 -32.3425 267° West  Level FlightAware Approximate
10:49AM 53.8015 -32.5451 267° West  Level FlightAware Approximate
10:50AM 53.7828 -32.7476 267° West  Level FlightAware Approximate
10:51AM 53.7637 -32.9498 267° West  Level FlightAware Approximate
10:52AM 53.7443 -33.1519 267° West  Level FlightAware Approximate
10:53AM 53.7246 -33.3537 267° West  Level FlightAware Approximate
10:54AM 53.7045 -33.5554 267° West  Level FlightAware Approximate
10:55AM 53.6841 -33.7569 267° West  Level FlightAware Approximate
10:56AM 53.6633 -33.9582 267° West  Level FlightAware Approximate
10:57AM 53.6422 -34.1593 266° West  Level FlightAware Approximate
10:58AM 53.6208 -34.3602 266° West  Level FlightAware Approximate
10:59AM 53.5990 -34.5608 266° West  Level FlightAware Approximate
11:00AM 53.5769 -34.7613 266° West  Level FlightAware Approximate
11:01AM 53.5545 -34.9616 266° West  Level FlightAware Approximate
11:02AM 53.5317 -35.1616 266° West  Level FlightAware Approximate
11:03AM 53.5086 -35.3615 266° West  Level FlightAware Approximate
11:04AM 53.4852 -35.5611 266° West  Level FlightAware Approximate
11:05AM 53.4614 -35.7604 266° West  Level FlightAware Approximate
11:06AM 53.4373 -35.9596 266° West  Level FlightAware Approximate
11:07AM 53.4129 -36.1586 266° West  Level FlightAware Approximate
11:08AM 53.3881 -36.3573 266° West  Level FlightAware Approximate
11:09AM 53.3630 -36.5557 266° West  Level FlightAware Approximate
11:10AM 53.3376 -36.7540 266° West  Level FlightAware Approximate
11:11AM 53.3119 -36.9520 265° West  Level FlightAware Approximate
11:12AM 53.2858 -37.1497 265° West  Level FlightAware Approximate
11:13AM 53.2594 -37.3473 265° West  Level FlightAware Approximate
11:14AM 53.2327 -37.5445 265° West  Level FlightAware Approximate
11:15AM 53.2056 -37.7416 265° West  Level FlightAware Approximate
11:16AM 53.1782 -37.9383 265° West  Level FlightAware Approximate
11:17AM 53.1505 -38.1349 265° West  Level FlightAware Approximate
11:18AM 53.1225 -38.3311 265° West  Level FlightAware Approximate
11:19AM 53.0942 -38.5271 265° West  Level FlightAware Approximate
11:20AM 53.0655 -38.7229 265° West  Level FlightAware Approximate
11:21AM 53.0365 -38.9184 265° West  Level FlightAware Approximate
11:22AM 53.0072 -39.1136 265° West  Level FlightAware Approximate
11:23AM 52.9776 -39.3086 265° West  Level FlightAware Approximate
11:24AM 52.9476 -39.5033 265° West  Level FlightAware Approximate
11:25AM 52.9173 -39.6977 265° West  Level FlightAware Approximate
11:26AM 52.8868 -39.8918 265° West  Level FlightAware Approximate
11:27AM 52.8559 -40.0857 265° West  Level FlightAware Approximate
11:28AM 52.8246 -40.2793 265° West  Level FlightAware Approximate
11:29AM 52.7931 -40.4726 265° West  Level FlightAware Approximate
11:30AM 52.7613 -40.6656 265° West  Level FlightAware Approximate
11:31AM 52.7291 -40.8584 265° West  Level FlightAware Approximate
11:32AM 52.6967 -41.0509 265° West  Level FlightAware Approximate
11:33AM 52.6639 -41.2430 265° West  Level FlightAware Approximate
11:34AM 52.6308 -41.4349 266° West  Level FlightAware Approximate
11:35AM 52.5974 -41.6265 266° West  Level FlightAware Approximate
11:36AM 52.5637 -41.8178 266° West  Level FlightAware Approximate
11:37AM 52.5297 -42.0088 266° West  Level FlightAware Approximate
11:38AM 52.4953 -42.1996 266° West  Level FlightAware Approximate
11:39AM 52.4607 -42.3900 266° West  Level FlightAware Approximate
11:40AM 52.4258 -42.5801 266° West  Level FlightAware Approximate
11:41AM 52.3905 -42.7699 266° West  Level FlightAware Approximate
11:42AM 52.3550 -42.9594 266° West  Level FlightAware Approximate
11:43AM 52.3192 -43.1486 267° West  Level FlightAware Approximate
11:44AM 52.2830 -43.3375 267° West  Level FlightAware Approximate
11:45AM 52.2466 -43.5261 267° West  Level FlightAware Approximate
11:46AM 52.2098 -43.7143 267° West  Level FlightAware Approximate
11:47AM 52.1728 -43.9023 268° West  Level FlightAware Approximate
11:48AM 52.1354 -44.0899 268° West  Level FlightAware Approximate
11:49AM 52.0978 -44.2773 268° West  Level FlightAware Approximate
11:50AM 52.0599 -44.4643 268° West  Level FlightAware Approximate
11:51AM 52.0216 -44.6510 269° West  Level FlightAware Approximate
11:52AM 51.9831 -44.8373 269° West  Level FlightAware Approximate
11:53AM 51.9443 -45.0234 270° West  Level FlightAware Approximate
11:54AM 51.9052 -45.2091 270° West  Level FlightAware Approximate
11:55AM 51.8658 -45.3945 271° West  Level FlightAware Approximate
11:56AM 51.8261 -45.5796 271° West  Level FlightAware Approximate
11:57AM 51.7861 -45.7644 272° West  Level FlightAware Approximate
11:58AM 51.7458 -45.9488 272° West  Level FlightAware Approximate
11:59AM 51.7053 -46.1329 273° West  Level FlightAware Approximate
12:00PM 51.6644 -46.3167 274° West  Level FlightAware Approximate
12:01PM 51.6233 -46.5001 275° West  Level FlightAware Approximate
12:02PM 51.5818 -46.6832 276° West  Level FlightAware Approximate
12:03PM 51.5401 -46.8660 277° West  Level FlightAware Approximate
12:04PM 51.4981 -47.0484 278° West  Level FlightAware Approximate
12:05PM 51.4559 -47.2305 279° West  Level FlightAware Approximate
12:06PM 51.4133 -47.4122 280° West  Level FlightAware Approximate
12:07PM 51.3705 -47.5936 282° West  Level FlightAware Approximate
12:08PM 51.3274 -47.7747 283° West  Level FlightAware Approximate
12:09PM 51.2840 -47.9554 285° West  Level FlightAware Approximate
12:10PM 51.2403 -48.1358 287° West  Level FlightAware Approximate
12:11PM 51.1964 -48.3159 289° West  Level FlightAware Approximate
12:12PM 51.1522 -48.4956 292° West  Level FlightAware Approximate
12:13PM 51.7667 -51.0667 246° West 510 587 37,000  Level Gander Center
12:17PM 51.5333 -51.8833 248° West 490 564 37,000  Level Gander Center
12:18PM 51.4833 -52.0833 240° Southwest 500 575 37,000  Level Gander Center
12:19PM 51.4167 -52.2667 246° West 500 575 37,000  Level Gander Center
12:20PM 51.3667 -52.4500 238° Southwest 490 564 37,000  Level Gander Center
12:21PM 51.2833 -52.6667 242° Southwest 490 564 37,000  Level Gander Center
12:22PM 51.2167 -52.8667 242° Southwest 490 564 37,000  Level Gander Center
12:23PM 51.1500 -53.0667 245° Southwest 490 564 37,000  Level Gander Center
12:24PM 51.1000 -53.2333 242° Southwest 490 564 37,000  Level Gander Center
12:25PM 51.0333 -53.4333 242° Southwest 490 564 37,000  Level Gander Center
12:26PM 50.9667 -53.6333 240° Southwest 490 564 37,000  Level Gander Center
12:27PM 50.9000 -53.8167 240° Southwest 480 552 37,000  Level Gander Center
12:28PM 50.8333 -54.0000 238° Southwest 480 552 37,000  Level Gander Center
12:29PM 50.7667 -54.1667 242° Southwest 470 541 37,000 120 Level Gander Center
12:30PM 50.7000 -54.3667 245° Southwest 480 552 37,300 480 Climbing Gander Center
12:31PM 50.6500 -54.5333 234° Southwest 490 564 38,000 300 Climbing Gander Center
12:32PM 50.5667 -54.7167 249° West 490 564 38,000  Level Gander Center
12:33PM 50.5167 -54.9167 235° Southwest 480 552 38,000  Level Gander Center
12:34PM 50.4333 -55.1000 245° Southwest 480 552 38,000  Level Gander Center
12:35PM 50.3833 -55.2667 237° Southwest 480 552 38,000  Level Gander Center
12:36PM 50.3000 -55.4667 238° Southwest 480 552 38,000  Level Gander Center
12:37PM 50.2333 -55.6333 240° Southwest 480 552 38,000  Level Gander Center
12:38PM 50.1667 -55.8167 238° Southwest 480 552 38,000  Level Gander Center
12:39PM 50.1000 -55.9833 243° Southwest 480 552 38,000  Level Gander Center
12:40PM 50.0333 -56.1833 241° Southwest 480 552 38,000  Level Gander Center
12:41PM 49.9667 -56.3667 238° Southwest 480 552 38,000  Level Gander Center
12:42PM 49.9000 -56.5333 241° Southwest 480 552 38,000  Level Gander Center
12:43PM 49.8333 -56.7167 238° Southwest 480 552 38,000  Level Gander Center
12:44PM 49.7667 -56.8833 232° Southwest 470 541 38,000  Level Gander Center
12:45PM 49.6833 -57.0500 247° West 470 541 38,000  Level Gander Center
12:46PM 49.6333 -57.2333 229° Southwest 470 541 38,000  Level Gander Center
12:47PM 49.5500 -57.3833 243° Southwest 470 541 38,000  Level Gander Center
12:48PM 49.4833 -57.5833 243° Southwest 470 541 38,000  Level Gander Center
12:49PM 49.4333 -57.7333 235° Southwest 470 541 38,000  Level Gander Center
12:50PM 49.3500 -57.9167 239° Southwest 470 541 38,000  Level Gander Center
12:51PM 49.2833 -58.0833 241° Southwest 470 541 38,000  Level Gander Center
12:52PM 49.2167 -58.2667 236° Southwest 470 541 38,000  Level Gander Center
12:53PM 49.1500 -58.4167 239° Southwest 470 541 38,000  Level Gander Center
12:54PM 49.0833 -58.5833 235° Southwest 470 541 38,000  Level Gander Center
12:55PM 49.0000 -58.7667 236° Southwest 470 541 38,000  Level Gander Center
12:56PM 48.9333 -58.9167 241° Southwest 470 541 38,000  Level Gander Center
12:57PM 48.8667 -59.1000 236° Southwest 470 541 38,000  Level Gander Center
12:58PM 48.8000 -59.2500 235° Southwest 460 529 38,000  Level Gander Center
12:59PM 48.7167 -59.4333 236° Southwest 460 529 38,000  Level Gander Center
01:00PM 48.6500 -59.5833 236° Southwest 470 541 38,000  Level Gander Center
01:01PM 48.5833 -59.7333 236° Southwest 470 541 38,000  Level Gander Center
01:02PM 48.5000 -59.9167 243° Southwest 470 541 38,000  Level Gander Center
01:03PM 48.4500 -60.0667 241° Southwest 470 541 38,000  Level Gander Center
01:04PM 48.3833 -60.2500 230° Southwest 460 529 38,000  Level Gander Center
01:05PM 48.3000 -60.4000 236° Southwest 460 529 38,000  Level Gander Center
01:06PM 48.2333 -60.5500 236° Southwest 460 529 38,000  Level Gander Center
01:07PM 48.1667 -60.7000 236° Southwest 460 529 38,000  Level Gander Center
01:08PM 48.0833 -60.8833 236° Southwest 460 529 38,000  Level Gander Center
01:09PM 48.0167 -61.0333 233° Southwest 460 529 38,000  Level Gander Center
01:10PM 47.9333 -61.2000 242° Southwest 470 541 38,000  Level Gander Center
01:11PM 47.8667 -61.3833 230° Southwest 480 552 38,000  Level Gander Center
01:12PM 47.7833 -61.5333 239° Southwest 470 541 38,000  Level Gander Center
01:13PM 47.7167 -61.7000 237° Southwest 470 541 38,000  Level Gander Center
01:14PM 47.6500 -61.8500 233° Southwest 470 541 38,000  Level Gander Center
01:15PM 47.5667 -62.0167 236° Southwest 480 552 38,000  Level Gander Center
01:16PM 47.4833 -62.2000 231° Southwest 470 541 38,000  Level Moncton Center
01:17PM 47.4000 -62.3500 231° Southwest 470 541 38,000  Level Moncton Center
01:18PM 47.3167 -62.5000 237° Southwest 470 541 38,000  Level Moncton Center
01:19PM 47.2500 -62.6500 234° Southwest 470 541 38,000  Level Moncton Center
01:20PM 47.1667 -62.8167 237° Southwest 470 541 38,000  Level Moncton Center
01:21PM 47.1000 -62.9667 231° Southwest 460 529 38,000  Level Moncton Center
01:22PM 47.0167 -63.1167 231° Southwest 470 541 38,000  Level Moncton Center
01:23PM 46.9333 -63.2667 234° Southwest 470 541 38,000  Level Moncton Center
01:24PM 46.8667 -63.4000 240° Southwest 470 541 38,000  Level Gander Center
01:25PM 46.8000 -63.5667 231° Southwest 470 541 38,000  Level Gander Center
01:26PM 46.7167 -63.7167 237° Southwest 470 541 38,000  Level Gander Center
01:27PM 46.6500 -63.8667 240° Southwest 460 529 38,000  Level Gander Center
01:28PM 46.5833 -64.0333 223° Southwest 460 529 38,000  Level Gander Center
01:29PM 46.4833 -64.1667 242° Southwest 460 529 38,000  Level Gander Center
01:30PM 46.4167 -64.3500 231° Southwest 460 529 38,000  Level Moncton Center
01:31PM 46.3333 -64.5000 234° Southwest 470 541 38,000  Level Moncton Center
01:32PM 46.2667 -64.6333 234° Southwest 470 541 38,000  Level Moncton Center
01:33PM 46.1833 -64.8000 231° Southwest 470 541 38,000  Level Moncton Center
01:34PM 46.1000 -64.9500 226° Southwest 470 541 38,000  Level Moncton Center
01:35PM 46.0000 -65.1000 234° Southwest 470 541 38,000  Level Moncton Center
01:36PM 45.9333 -65.2333 234° Southwest 470 541 38,000  Level Moncton Center
01:37PM 45.8500 -65.4000 238° Southwest 470 541 38,000  Level Moncton Center
01:38PM 45.7833 -65.5500 228° Southwest 470 541 38,000  Level Moncton Center
01:39PM 45.7000 -65.6833 232° Southwest 470 541 38,000  Level Moncton Center
01:40PM 45.6167 -65.8333 235° Southwest 470 541 38,000  Level Moncton Center
01:41PM 45.5500 -65.9667 235° Southwest 470 541 38,000  Level Moncton Center
01:42PM 45.4667 -66.1333 227° Southwest 470 541 38,000  Level Moncton Center
01:43PM 45.3667 -66.2833 235° Southwest 470 541 38,000  Level Moncton Center
01:44PM 45.2833 -66.4500 235° Southwest 470 541 38,000  Level Moncton Center
01:45PM 45.2167 -66.5833 228° Southwest 470 541 38,000  Level Moncton Center
01:46PM 45.1333 -66.7167 238° Southwest 460 529 38,000  Level Moncton Center
01:47PM 45.0667 -66.8667 229° Southwest 460 529 38,000  Level Moncton Center
01:48PM 44.9833 -67.0000 229° Southwest 460 529 38,000  Level Moncton Center
01:49PM 44.9000 -67.1333 241° Southwest 450 518 38,000  Level Moncton Center
01:50PM 44.8333 -67.3000 238° Southwest 450 518 38,000  Level Moncton Center
01:51PM 44.7756 -67.4297 231° Southwest 452 520 38,000  Level Boston Center
01:52PM 44.6961 -67.5681 234° Southwest 458 527 38,000  Level Boston Center
01:53PM 44.6208 -67.7144 228° Southwest 463 533 38,000  Level Boston Center
01:54PM 44.5333 -67.8500 232° Southwest 450 518 38,000  Level Moncton Center
01:55PM 44.4500 -68.0000 241° Southwest 450 518 38,000  Level Moncton Center
01:56PM 44.3975 -68.1306 228° Southwest 453 521 38,000  Level Boston Center
01:57PM 44.3000 -68.2833 235° Southwest 450 518 38,000  Level Moncton Center
01:58PM 44.2333 -68.4167 227° Southwest 450 518 38,000  Level Moncton Center
01:59PM 44.1333 -68.5667 242° Southwest 450 518 38,000  Level Moncton Center
02:00PM 44.0833 -68.7000 229° Southwest 450 518 38,000  Level Moncton Center
02:01PM 44.0000 -68.8333 229° Southwest 460 529 38,000  Level Moncton Center
02:02PM 43.9167 -68.9667 235° Southwest 460 529 38,000  Level Moncton Center
02:03PM 43.8500 -69.1000 236° Southwest 450 518 38,000  Level Moncton Center
02:04PM 43.7753 -69.2539 231° Southwest 453 521 38,000  Level Boston Center
02:05PM 43.6978 -69.3872 232° Southwest 453 521 38,000  Level Boston Center
02:06PM 43.6200 -69.5261 232° Southwest 453 521 38,000  Level Boston Center
02:07PM 43.5422 -69.6644 232° Southwest 453 521 38,000  Level Boston Center
02:08PM 43.4642 -69.8025 231° Southwest 458 527 38,000  Level Boston Center
02:09PM 43.3839 -69.9403 224° Southwest 458 527 38,000  Level Boston Center
02:10PM 43.2925 -70.0611 213° Southwest 458 527 38,000  Level Boston Center
02:11PM 43.1800 -70.1622 214° Southwest 466 536 38,000  Level Boston Center
02:12PM 43.0694 -70.2631 213° Southwest 483 556 38,000  Level Boston Center
02:13PM 42.9567 -70.3633 213° Southwest 483 556 38,000  Level Boston Center
02:14PM 42.8439 -70.4636 213° Southwest 488 562 38,000  Level Boston Center
02:15PM 42.7308 -70.5633 214° Southwest 493 567 38,000  Level Boston Center
02:16PM 42.6178 -70.6653 213° Southwest 493 567 38,000  Level Boston Center
02:17PM 42.5172 -70.7528 214° Southwest 486 559 38,000  Level Boston Center
02:18PM 42.3917 -70.8658 212° Southwest 494 568 38,000  Level Boston Center
02:19PM 42.2783 -70.9614 213° Southwest 499 574 38,000  Level Boston Center
02:20PM 42.1647 -71.0592 212° Southwest 494 568 38,000  Level Boston Center
02:21PM 42.0492 -71.1567 212° Southwest 494 568 38,000  Level Boston Center
02:22PM 41.9356 -71.2539 213° Southwest 489 563 38,000 -240 Level Boston Center
02:23PM 41.8261 -71.3508 212° Southwest 489 563 37,600 -1,500 Descending Boston Center
02:24PM 41.7144 -71.4444 220° Southwest 489 563 35,100 -2,700 Descending Boston Center
02:25PM 41.6153 -71.5544 219° Southwest 479 551 32,200 -2,700 Descending Boston Center
02:26PM 41.5286 -71.6497 220° Southwest 468 539 29,800 -2,400 Descending Boston Center
02:27PM 41.4356 -71.7533 219° Southwest 452 520 27,500 -2,280 Descending Boston Center
02:28PM 41.3422 -71.8539 219° Southwest 445 512 25,300 -1,920 Descending Boston Center
02:29PM 41.2489 -71.9542 222° Southwest 440 506 23,700 -1,860 Descending Boston Center
02:30PM 41.1619 -72.0569 241° Southwest 430 495 21,600 -1,980 Descending Boston Center
02:31PM 41.1081 -72.1867 250° West 394 453 19,800 -1,800 Descending Boston Center
02:32PM 41.0728 -72.3133 246° West 379 436 18,100 -1,680 Descending Boston Center
02:33PM 41.0311 -72.4400 231° Southwest 379 436 16,500 -1,680 Descending Boston Center
02:34PM 40.9667 -72.5444 234° Southwest 374 430 14,800 -1,620 Descending Boston Center
02:35PM 40.9103 -72.6461 237° Southwest 369 425 13,300 -1,320 Descending Boston Center
02:36PM 40.8667 -72.7333 232° Southwest 300 345 12,200 -660 Descending New York TRACON
02:37PM 40.8167 -72.8167 232° Southwest 289 333 12,000 -600 Descending New York TRACON
02:38PM 40.7667 -72.9000 232° Southwest 287 330 11,100 -1,140 Descending New York TRACON
02:39PM 40.7167 -72.9833 225° Southwest 282 325 9,800 -1,380 Descending New York TRACON
02:40PM 40.6667 -73.0500 232° Southwest 282 325 8,500 -1,320 Descending New York TRACON
02:41PM 40.6167 -73.1333 270° West 276 318 7,400 -780 Descending New York TRACON
02:42PM 40.6167 -73.2167 298° West 267 307 7,000 -240 Descending New York TRACON
02:43PM 40.6500 -73.3000 246° West 265 305 7,000 -60 Level New York TRACON
02:44PM 40.6002 -73.4451 217° Southwest 266 306 6,900 -60 Descending FlightAware ADS-B
02:44PM 40.5905 -73.4548 214° Southwest 274 315 6,900  Level FlightAware ADS-B
02:45PM 40.5740 -73.4693 213° Southwest 276 318 6,900  Level FlightAware ADS-B
02:45PM 40.5574 -73.4835 213° Southwest 277 319 6,900  Level FlightAware ADS-B
02:45PM 40.5320 -73.5056 214° Southwest 278 320 6,900 -660 Level FlightAware ADS-B
02:46PM 40.5159 -73.5197 214° Southwest 279 321 6,500 -1,320 Descending FlightAware ADS-B
02:46PM 40.4967 -73.5366 214° Southwest 275 316 6,200 -1,080 Descending FlightAware ADS-B
02:46PM 40.4791 -73.5520 214° Southwest 274 315 5,900 -1,140 Descending FlightAware ADS-B
02:46PM 40.4630 -73.5661 214° Southwest 272 313 5,600 -1,080 Descending FlightAware ADS-B
02:47PM 40.4447 -73.5824 214° Southwest 268 308 5,300 -1,080 Descending FlightAware ADS-B
02:47PM 40.4267 -73.5983 215° Southwest 264 304 5,000 -780 Descending FlightAware ADS-B
02:47PM 40.4116 -73.6120 215° Southwest 259 298 4,900 -840 Descending FlightAware ADS-B
02:48PM 40.3912 -73.6307 216° Southwest 260 299 4,500 -1,200 Descending FlightAware ADS-B
02:48PM 40.3702 -73.6505 217° Southwest 260 299 4,100 -780 Descending FlightAware ADS-B
02:48PM 40.3522 -73.6680 251° West 260 299 4,000 -540 Descending FlightAware ADS-B
02:49PM 40.3308 -73.7497 296° West 239 275 3,400 -600 Descending FlightAware ADS-B
02:50PM 40.3412 -73.7782 295° West 242 278 3,200 -600 Descending FlightAware ADS-B
02:50PM 40.3506 -73.8044 296° West 241 277 3,000 -660 Descending FlightAware ADS-B
02:51PM 40.3769 -73.8753 296° West 236 272 2,400 -720 Descending FlightAware ADS-B